sensor_id;sensor_type;location;lat;lon;timestamp;P1;durP1;ratioP1;P2;durP2;ratioP2
42036;SDS011;30340;52.004;5.908;2023-01-28T00:01:38;1.17;;;1.08;;
42036;SDS011;30340;52.004;5.908;2023-01-28T00:04:04;1.25;;;1.10;;
42036;SDS011;30340;52.004;5.908;2023-01-28T00:06:30;1.00;;;0.90;;
42036;SDS011;30340;52.004;5.908;2023-01-28T00:08:55;1.52;;;1.13;;
42036;SDS011;30340;52.004;5.908;2023-01-28T00:11:21;1.73;;;1.10;;
42036;SDS011;30340;52.004;5.908;2023-01-28T00:13:53;0.80;;;0.80;;
42036;SDS011;30340;52.004;5.908;2023-01-28T00:16:19;1.15;;;1.00;;
42036;SDS011;30340;52.004;5.908;2023-01-28T00:18:46;0.80;;;0.73;;
42036;SDS011;30340;52.004;5.908;2023-01-28T00:21:13;1.38;;;1.00;;
42036;SDS011;30340;52.004;5.908;2023-01-28T00:23:40;1.00;;;0.90;;
42036;SDS011;30340;52.004;5.908;2023-01-28T00:26:09;1.38;;;1.17;;
42036;SDS011;30340;52.004;5.908;2023-01-28T00:28:37;0.98;;;0.88;;
42036;SDS011;30340;52.004;5.908;2023-01-28T00:31:06;0.80;;;0.77;;
42036;SDS011;30340;52.004;5.908;2023-01-28T00:33:33;1.20;;;1.10;;
42036;SDS011;30340;52.004;5.908;2023-01-28T00:36:00;1.10;;;1.00;;
42036;SDS011;30340;52.004;5.908;2023-01-28T00:38:26;1.20;;;1.10;;
42036;SDS011;30340;52.004;5.908;2023-01-28T00:40:55;1.20;;;1.10;;
42036;SDS011;30340;52.004;5.908;2023-01-28T00:43:30;1.00;;;0.90;;
42036;SDS011;30340;52.004;5.908;2023-01-28T00:45:56;0.90;;;0.90;;
42036;SDS011;30340;52.004;5.908;2023-01-28T00:48:21;1.98;;;1.33;;
42036;SDS011;30340;52.004;5.908;2023-01-28T00:50:47;1.73;;;1.50;;
42036;SDS011;30340;52.004;5.908;2023-01-28T00:53:13;1.90;;;1.48;;
42036;SDS011;30340;52.004;5.908;2023-01-28T00:55:38;1.70;;;1.10;;
42036;SDS011;30340;52.004;5.908;2023-01-28T00:58:04;1.60;;;1.17;;
42036;SDS011;30340;52.004;5.908;2023-01-28T01:00:29;1.33;;;1.15;;
42036;SDS011;30340;52.004;5.908;2023-01-28T01:02:55;1.38;;;1.08;;
42036;SDS011;30340;52.004;5.908;2023-01-28T01:05:21;2.38;;;1.48;;
42036;SDS011;30340;52.004;5.908;2023-01-28T01:07:46;2.55;;;1.40;;
42036;SDS011;30340;52.004;5.908;2023-01-28T01:10:14;1.00;;;0.90;;
42036;SDS011;30340;52.004;5.908;2023-01-28T01:12:41;1.20;;;1.10;;
42036;SDS011;30340;52.004;5.908;2023-01-28T01:15:07;1.30;;;1.20;;
42036;SDS011;30340;52.004;5.908;2023-01-28T01:17:34;2.00;;;1.10;;
42036;SDS011;30340;52.004;5.908;2023-01-28T01:20:05;1.65;;;1.33;;
42036;SDS011;30340;52.004;5.908;2023-01-28T01:22:35;2.17;;;1.25;;
42036;SDS011;30340;52.004;5.908;2023-01-28T01:25:01;2.05;;;1.50;;
42036;SDS011;30340;52.004;5.908;2023-01-28T01:27:28;2.63;;;1.63;;
42036;SDS011;30340;52.004;5.908;2023-01-28T01:29:54;1.67;;;1.25;;
42036;SDS011;30340;52.004;5.908;2023-01-28T01:32:20;1.75;;;1.42;;
42036;SDS011;30340;52.004;5.908;2023-01-28T01:34:46;1.17;;;1.08;;
42036;SDS011;30340;52.004;5.908;2023-01-28T01:37:12;1.27;;;0.90;;
42036;SDS011;30340;52.004;5.908;2023-01-28T01:39:38;1.33;;;1.10;;
42036;SDS011;30340;52.004;5.908;2023-01-28T01:42:04;1.55;;;1.20;;
42036;SDS011;30340;52.004;5.908;2023-01-28T01:44:47;1.05;;;0.90;;
42036;SDS011;30340;52.004;5.908;2023-01-28T01:47:31;1.38;;;1.20;;
42036;SDS011;30340;52.004;5.908;2023-01-28T01:49:57;1.35;;;1.15;;
42036;SDS011;30340;52.004;5.908;2023-01-28T01:52:27;1.10;;;1.00;;
42036;SDS011;30340;52.004;5.908;2023-01-28T01:54:58;1.42;;;1.10;;
42036;SDS011;30340;52.004;5.908;2023-01-28T01:57:27;1.77;;;1.20;;
42036;SDS011;30340;52.004;5.908;2023-01-28T01:59:56;1.50;;;1.20;;
42036;SDS011;30340;52.004;5.908;2023-01-28T02:02:30;1.20;;;1.00;;
42036;SDS011;30340;52.004;5.908;2023-01-28T02:04:59;1.48;;;0.90;;
42036;SDS011;30340;52.004;5.908;2023-01-28T02:07:25;1.05;;;1.00;;
42036;SDS011;30340;52.004;5.908;2023-01-28T02:09:51;2.33;;;1.35;;
42036;SDS011;30340;52.004;5.908;2023-01-28T02:12:17;1.67;;;1.25;;
42036;SDS011;30340;52.004;5.908;2023-01-28T02:14:47;1.05;;;0.90;;
42036;SDS011;30340;52.004;5.908;2023-01-28T02:17:18;2.05;;;1.35;;
42036;SDS011;30340;52.004;5.908;2023-01-28T02:19:55;1.63;;;1.33;;
42036;SDS011;30340;52.004;5.908;2023-01-28T02:22:50;2.35;;;1.27;;
42036;SDS011;30340;52.004;5.908;2023-01-28T02:31:24;2.88;;;1.45;;
42036;SDS011;30340;52.004;5.908;2023-01-28T02:36:48;1.70;;;1.40;;
42036;SDS011;30340;52.004;5.908;2023-01-28T02:39:24;1.92;;;1.35;;
42036;SDS011;30340;52.004;5.908;2023-01-28T02:41:58;1.58;;;1.48;;
42036;SDS011;30340;52.004;5.908;2023-01-28T02:44:30;2.22;;;1.50;;
42036;SDS011;30340;52.004;5.908;2023-01-28T02:46:56;1.42;;;1.30;;
42036;SDS011;30340;52.004;5.908;2023-01-28T02:49:42;1.73;;;1.40;;
42036;SDS011;30340;52.004;5.908;2023-01-28T02:52:18;1.58;;;1.25;;
42036;SDS011;30340;52.004;5.908;2023-01-28T02:57:57;2.05;;;1.38;;
42036;SDS011;30340;52.004;5.908;2023-01-28T03:00:49;2.05;;;1.30;;
42036;SDS011;30340;52.004;5.908;2023-01-28T03:03:40;1.30;;;1.20;;
42036;SDS011;30340;52.004;5.908;2023-01-28T03:06:23;2.38;;;1.25;;
42036;SDS011;30340;52.004;5.908;2023-01-28T03:08:56;2.78;;;1.45;;
42036;SDS011;30340;52.004;5.908;2023-01-28T03:11:49;1.23;;;1.10;;
42036;SDS011;30340;52.004;5.908;2023-01-28T03:14:40;3.53;;;1.90;;
42036;SDS011;30340;52.004;5.908;2023-01-28T03:20:36;2.17;;;1.20;;
42036;SDS011;30340;52.004;5.908;2023-01-28T03:23:26;1.90;;;1.20;;
42036;SDS011;30340;52.004;5.908;2023-01-28T03:26:15;1.52;;;1.33;;
42036;SDS011;30340;52.004;5.908;2023-01-28T03:29:05;1.20;;;0.85;;
42036;SDS011;30340;52.004;5.908;2023-01-28T03:31:53;3.95;;;1.70;;
42036;SDS011;30340;52.004;5.908;2023-01-28T03:34:38;2.13;;;1.20;;
42036;SDS011;30340;52.004;5.908;2023-01-28T03:37:23;2.05;;;1.35;;
42036;SDS011;30340;52.004;5.908;2023-01-28T03:39:50;2.80;;;1.73;;
42036;SDS011;30340;52.004;5.908;2023-01-28T03:42:16;2.08;;;1.40;;
42036;SDS011;30340;52.004;5.908;2023-01-28T03:44:42;2.83;;;1.75;;
42036;SDS011;30340;52.004;5.908;2023-01-28T03:47:18;2.33;;;1.70;;
42036;SDS011;30340;52.004;5.908;2023-01-28T03:49:48;1.92;;;1.58;;
42036;SDS011;30340;52.004;5.908;2023-01-28T03:52:15;1.83;;;1.50;;
42036;SDS011;30340;52.004;5.908;2023-01-28T03:54:42;2.35;;;1.45;;
42036;SDS011;30340;52.004;5.908;2023-01-28T03:57:11;2.45;;;1.50;;
42036;SDS011;30340;52.004;5.908;2023-01-28T03:59:37;3.25;;;1.63;;
42036;SDS011;30340;52.004;5.908;2023-01-28T04:02:03;1.58;;;1.00;;
42036;SDS011;30340;52.004;5.908;2023-01-28T04:04:29;1.90;;;1.23;;
42036;SDS011;30340;52.004;5.908;2023-01-28T04:06:56;3.05;;;1.58;;
42036;SDS011;30340;52.004;5.908;2023-01-28T04:09:22;2.80;;;1.50;;
42036;SDS011;30340;52.004;5.908;2023-01-28T04:11:48;2.35;;;1.30;;
42036;SDS011;30340;52.004;5.908;2023-01-28T04:14:17;1.40;;;1.10;;
42036;SDS011;30340;52.004;5.908;2023-01-28T04:16:43;1.55;;;1.17;;
42036;SDS011;30340;52.004;5.908;2023-01-28T04:19:09;2.33;;;1.52;;
42036;SDS011;30340;52.004;5.908;2023-01-28T04:21:36;3.08;;;1.65;;
42036;SDS011;30340;52.004;5.908;2023-01-28T04:24:02;2.88;;;1.50;;
42036;SDS011;30340;52.004;5.908;2023-01-28T04:26:28;1.40;;;1.10;;
42036;SDS011;30340;52.004;5.908;2023-01-28T04:28:54;1.65;;;1.20;;
42036;SDS011;30340;52.004;5.908;2023-01-28T04:31:20;2.42;;;1.30;;
42036;SDS011;30340;52.004;5.908;2023-01-28T04:33:47;1.75;;;1.42;;
42036;SDS011;30340;52.004;5.908;2023-01-28T04:36:13;2.78;;;1.20;;
42036;SDS011;30340;52.004;5.908;2023-01-28T04:38:39;1.30;;;1.02;;
42036;SDS011;30340;52.004;5.908;2023-01-28T04:41:04;1.33;;;1.20;;
42036;SDS011;30340;52.004;5.908;2023-01-28T04:43:30;1.98;;;1.20;;
42036;SDS011;30340;52.004;5.908;2023-01-28T04:45:55;1.63;;;1.05;;
42036;SDS011;30340;52.004;5.908;2023-01-28T04:48:21;1.15;;;1.00;;
42036;SDS011;30340;52.004;5.908;2023-01-28T04:50:46;1.77;;;1.05;;
42036;SDS011;30340;52.004;5.908;2023-01-28T04:53:12;2.72;;;1.60;;
42036;SDS011;30340;52.004;5.908;2023-01-28T04:55:37;3.50;;;1.77;;
42036;SDS011;30340;52.004;5.908;2023-01-28T04:58:03;1.67;;;1.48;;
42036;SDS011;30340;52.004;5.908;2023-01-28T05:00:28;3.72;;;1.98;;
42036;SDS011;30340;52.004;5.908;2023-01-28T05:02:54;2.78;;;1.52;;
42036;SDS011;30340;52.004;5.908;2023-01-28T05:05:20;2.17;;;1.60;;
42036;SDS011;30340;52.004;5.908;2023-01-28T05:07:55;1.77;;;1.08;;
42036;SDS011;30340;52.004;5.908;2023-01-28T05:10:21;3.38;;;1.67;;
42036;SDS011;30340;52.004;5.908;2023-01-28T05:12:48;3.85;;;2.10;;
42036;SDS011;30340;52.004;5.908;2023-01-28T05:15:14;2.20;;;1.38;;
42036;SDS011;30340;52.004;5.908;2023-01-28T05:17:41;2.63;;;1.65;;
42036;SDS011;30340;52.004;5.908;2023-01-28T05:20:07;2.55;;;1.50;;
42036;SDS011;30340;52.004;5.908;2023-01-28T05:22:34;3.20;;;1.63;;
42036;SDS011;30340;52.004;5.908;2023-01-28T05:24:59;1.52;;;1.10;;
42036;SDS011;30340;52.004;5.908;2023-01-28T05:27:27;3.33;;;1.60;;
42036;SDS011;30340;52.004;5.908;2023-01-28T05:29:53;2.17;;;1.80;;
42036;SDS011;30340;52.004;5.908;2023-01-28T05:32:18;2.70;;;1.20;;
42036;SDS011;30340;52.004;5.908;2023-01-28T05:34:44;2.45;;;1.40;;
42036;SDS011;30340;52.004;5.908;2023-01-28T05:37:10;3.63;;;1.80;;
42036;SDS011;30340;52.004;5.908;2023-01-28T05:39:35;2.55;;;1.65;;
42036;SDS011;30340;52.004;5.908;2023-01-28T05:42:01;3.75;;;2.00;;
42036;SDS011;30340;52.004;5.908;2023-01-28T05:44:26;3.33;;;1.42;;
42036;SDS011;30340;52.004;5.908;2023-01-28T05:46:52;3.00;;;1.70;;
42036;SDS011;30340;52.004;5.908;2023-01-28T05:49:17;2.92;;;1.58;;
42036;SDS011;30340;52.004;5.908;2023-01-28T05:51:43;1.70;;;1.42;;
42036;SDS011;30340;52.004;5.908;2023-01-28T05:54:08;2.88;;;1.63;;
42036;SDS011;30340;52.004;5.908;2023-01-28T05:56:34;2.75;;;1.77;;
42036;SDS011;30340;52.004;5.908;2023-01-28T05:59:00;4.03;;;1.85;;
42036;SDS011;30340;52.004;5.908;2023-01-28T06:01:27;3.80;;;1.73;;
42036;SDS011;30340;52.004;5.908;2023-01-28T06:03:53;3.38;;;1.90;;
42036;SDS011;30340;52.004;5.908;2023-01-28T06:06:19;2.28;;;1.50;;
42036;SDS011;30340;52.004;5.908;2023-01-28T06:08:44;2.42;;;1.63;;
42036;SDS011;30340;52.004;5.908;2023-01-28T06:11:10;3.67;;;1.70;;
42036;SDS011;30340;52.004;5.908;2023-01-28T06:13:35;3.22;;;1.60;;
42036;SDS011;30340;52.004;5.908;2023-01-28T06:16:01;2.22;;;1.40;;
42036;SDS011;30340;52.004;5.908;2023-01-28T06:18:27;2.28;;;1.42;;
42036;SDS011;30340;52.004;5.908;2023-01-28T06:20:53;3.28;;;1.80;;
42036;SDS011;30340;52.004;5.908;2023-01-28T06:23:19;2.08;;;1.45;;
42036;SDS011;30340;52.004;5.908;2023-01-28T06:25:44;2.25;;;1.55;;
42036;SDS011;30340;52.004;5.908;2023-01-28T06:28:10;2.33;;;1.50;;
42036;SDS011;30340;52.004;5.908;2023-01-28T06:30:35;2.35;;;1.58;;
42036;SDS011;30340;52.004;5.908;2023-01-28T06:33:01;2.75;;;1.25;;
42036;SDS011;30340;52.004;5.908;2023-01-28T06:35:27;3.70;;;1.88;;
42036;SDS011;30340;52.004;5.908;2023-01-28T06:37:52;2.35;;;1.40;;
42036;SDS011;30340;52.004;5.908;2023-01-28T06:40:19;2.63;;;1.58;;
42036;SDS011;30340;52.004;5.908;2023-01-28T06:42:46;3.15;;;1.67;;
42036;SDS011;30340;52.004;5.908;2023-01-28T06:45:12;4.55;;;2.22;;
42036;SDS011;30340;52.004;5.908;2023-01-28T06:47:38;4.40;;;2.50;;
42036;SDS011;30340;52.004;5.908;2023-01-28T06:50:04;3.67;;;2.38;;
42036;SDS011;30340;52.004;5.908;2023-01-28T06:52:30;5.47;;;2.55;;
42036;SDS011;30340;52.004;5.908;2023-01-28T06:54:55;3.50;;;1.90;;
42036;SDS011;30340;52.004;5.908;2023-01-28T06:57:21;2.47;;;1.40;;
42036;SDS011;30340;52.004;5.908;2023-01-28T06:59:46;1.95;;;1.50;;
42036;SDS011;30340;52.004;5.908;2023-01-28T07:02:12;3.13;;;1.70;;
42036;SDS011;30340;52.004;5.908;2023-01-28T07:04:37;2.35;;;1.60;;
42036;SDS011;30340;52.004;5.908;2023-01-28T07:07:03;1.10;;;0.95;;
42036;SDS011;30340;52.004;5.908;2023-01-28T07:09:29;1.15;;;1.05;;
42036;SDS011;30340;52.004;5.908;2023-01-28T07:11:54;1.58;;;1.20;;
42036;SDS011;30340;52.004;5.908;2023-01-28T07:14:20;2.97;;;1.40;;
42036;SDS011;30340;52.004;5.908;2023-01-28T07:16:45;2.97;;;1.60;;
42036;SDS011;30340;52.004;5.908;2023-01-28T07:19:11;3.78;;;1.98;;
42036;SDS011;30340;52.004;5.908;2023-01-28T07:21:36;2.95;;;1.95;;
42036;SDS011;30340;52.004;5.908;2023-01-28T07:24:02;2.45;;;1.50;;
42036;SDS011;30340;52.004;5.908;2023-01-28T07:26:29;2.03;;;1.52;;
42036;SDS011;30340;52.004;5.908;2023-01-28T07:28:55;2.05;;;1.35;;
42036;SDS011;30340;52.004;5.908;2023-01-28T07:31:21;2.50;;;1.77;;
42036;SDS011;30340;52.004;5.908;2023-01-28T07:33:47;2.03;;;1.42;;
42036;SDS011;30340;52.004;5.908;2023-01-28T07:36:12;2.50;;;1.35;;
42036;SDS011;30340;52.004;5.908;2023-01-28T07:38:38;2.30;;;1.80;;
42036;SDS011;30340;52.004;5.908;2023-01-28T07:41:03;3.15;;;1.50;;
42036;SDS011;30340;52.004;5.908;2023-01-28T07:43:29;3.60;;;1.73;;
42036;SDS011;30340;52.004;5.908;2023-01-28T07:45:55;3.17;;;1.65;;
42036;SDS011;30340;52.004;5.908;2023-01-28T07:48:24;1.90;;;1.30;;
42036;SDS011;30340;52.004;5.908;2023-01-28T07:50:49;1.65;;;1.40;;
42036;SDS011;30340;52.004;5.908;2023-01-28T07:53:15;1.48;;;1.30;;
42036;SDS011;30340;52.004;5.908;2023-01-28T07:55:41;1.70;;;1.23;;
42036;SDS011;30340;52.004;5.908;2023-01-28T07:58:07;4.97;;;2.13;;
42036;SDS011;30340;52.004;5.908;2023-01-28T08:00:35;4.28;;;2.47;;
42036;SDS011;30340;52.004;5.908;2023-01-28T08:03:06;2.00;;;1.40;;
42036;SDS011;30340;52.004;5.908;2023-01-28T08:05:37;3.90;;;1.73;;
42036;SDS011;30340;52.004;5.908;2023-01-28T08:08:06;3.45;;;1.75;;
42036;SDS011;30340;52.004;5.908;2023-01-28T08:10:32;4.95;;;2.05;;
42036;SDS011;30340;52.004;5.908;2023-01-28T08:12:58;3.80;;;2.33;;
42036;SDS011;30340;52.004;5.908;2023-01-28T08:15:24;4.43;;;1.90;;
42036;SDS011;30340;52.004;5.908;2023-01-28T08:17:52;3.13;;;1.90;;
42036;SDS011;30340;52.004;5.908;2023-01-28T08:20:18;2.72;;;1.60;;
42036;SDS011;30340;52.004;5.908;2023-01-28T08:22:44;3.47;;;2.08;;
42036;SDS011;30340;52.004;5.908;2023-01-28T08:25:09;2.85;;;1.60;;
42036;SDS011;30340;52.004;5.908;2023-01-28T08:27:35;4.88;;;2.35;;
42036;SDS011;30340;52.004;5.908;2023-01-28T08:30:01;3.65;;;1.90;;
42036;SDS011;30340;52.004;5.908;2023-01-28T08:32:27;3.40;;;2.05;;
42036;SDS011;30340;52.004;5.908;2023-01-28T08:34:54;5.65;;;2.40;;
42036;SDS011;30340;52.004;5.908;2023-01-28T08:37:19;5.30;;;2.80;;
42036;SDS011;30340;52.004;5.908;2023-01-28T08:39:45;7.25;;;3.78;;
42036;SDS011;30340;52.004;5.908;2023-01-28T08:42:10;7.75;;;3.75;;
42036;SDS011;30340;52.004;5.908;2023-01-28T08:44:36;4.50;;;2.60;;
42036;SDS011;30340;52.004;5.908;2023-01-28T08:47:01;3.55;;;2.10;;
42036;SDS011;30340;52.004;5.908;2023-01-28T08:49:27;4.55;;;2.35;;
42036;SDS011;30340;52.004;5.908;2023-01-28T08:51:52;2.65;;;1.60;;
42036;SDS011;30340;52.004;5.908;2023-01-28T08:54:19;2.72;;;1.75;;
42036;SDS011;30340;52.004;5.908;2023-01-28T08:56:45;3.70;;;2.13;;
42036;SDS011;30340;52.004;5.908;2023-01-28T08:59:12;4.40;;;2.17;;
42036;SDS011;30340;52.004;5.908;2023-01-28T09:01:39;2.65;;;1.70;;
42036;SDS011;30340;52.004;5.908;2023-01-28T09:04:05;2.60;;;1.20;;
42036;SDS011;30340;52.004;5.908;2023-01-28T09:06:30;2.95;;;1.50;;
42036;SDS011;30340;52.004;5.908;2023-01-28T09:08:57;6.15;;;2.45;;
42036;SDS011;30340;52.004;5.908;2023-01-28T09:11:26;7.38;;;3.40;;
42036;SDS011;30340;52.004;5.908;2023-01-28T09:13:52;5.30;;;2.45;;
42036;SDS011;30340;52.004;5.908;2023-01-28T09:16:18;4.18;;;2.30;;
42036;SDS011;30340;52.004;5.908;2023-01-28T09:18:44;3.70;;;2.10;;
42036;SDS011;30340;52.004;5.908;2023-01-28T09:21:10;4.88;;;2.67;;
42036;SDS011;30340;52.004;5.908;2023-01-28T09:23:36;3.03;;;1.80;;
42036;SDS011;30340;52.004;5.908;2023-01-28T09:26:03;3.72;;;2.08;;
42036;SDS011;30340;52.004;5.908;2023-01-28T09:28:29;3.92;;;2.60;;
42036;SDS011;30340;52.004;5.908;2023-01-28T09:31:05;3.65;;;2.10;;
42036;SDS011;30340;52.004;5.908;2023-01-28T09:33:33;4.05;;;2.33;;
42036;SDS011;30340;52.004;5.908;2023-01-28T09:36:00;2.90;;;1.70;;
42036;SDS011;30340;52.004;5.908;2023-01-28T09:38:30;2.78;;;1.80;;
42036;SDS011;30340;52.004;5.908;2023-01-28T09:40:56;2.67;;;1.40;;
42036;SDS011;30340;52.004;5.908;2023-01-28T09:46:11;2.58;;;1.67;;
42036;SDS011;30340;52.004;5.908;2023-01-28T09:48:43;1.70;;;1.30;;
42036;SDS011;30340;52.004;5.908;2023-01-28T09:51:20;2.35;;;1.70;;
42036;SDS011;30340;52.004;5.908;2023-01-28T09:54:21;1.45;;;1.25;;
42036;SDS011;30340;52.004;5.908;2023-01-28T09:56:55;2.13;;;1.38;;
42036;SDS011;30340;52.004;5.908;2023-01-28T09:59:30;2.03;;;1.30;;
42036;SDS011;30340;52.004;5.908;2023-01-28T10:02:01;1.60;;;1.45;;
42036;SDS011;30340;52.004;5.908;2023-01-28T10:04:57;1.75;;;1.20;;
42036;SDS011;30340;52.004;5.908;2023-01-28T10:10:02;2.47;;;1.35;;
42036;SDS011;30340;52.004;5.908;2023-01-28T10:12:53;2.10;;;1.50;;
42036;SDS011;30340;52.004;5.908;2023-01-28T10:18:28;2.90;;;1.80;;
42036;SDS011;30340;52.004;5.908;2023-01-28T10:21:05;2.70;;;1.55;;
42036;SDS011;30340;52.004;5.908;2023-01-28T10:26:15;1.88;;;1.40;;
42036;SDS011;30340;52.004;5.908;2023-01-28T10:28:47;1.52;;;1.35;;
42036;SDS011;30340;52.004;5.908;2023-01-28T10:31:21;1.60;;;1.30;;
42036;SDS011;30340;52.004;5.908;2023-01-28T10:33:47;1.25;;;1.00;;
42036;SDS011;30340;52.004;5.908;2023-01-28T10:36:12;2.25;;;1.50;;
42036;SDS011;30340;52.004;5.908;2023-01-28T10:38:39;1.90;;;1.33;;
42036;SDS011;30340;52.004;5.908;2023-01-28T10:41:04;2.10;;;1.40;;
42036;SDS011;30340;52.004;5.908;2023-01-28T10:43:34;2.70;;;1.75;;
42036;SDS011;30340;52.004;5.908;2023-01-28T10:46:13;2.50;;;1.50;;
42036;SDS011;30340;52.004;5.908;2023-01-28T10:51:39;2.70;;;1.83;;
42036;SDS011;30340;52.004;5.908;2023-01-28T10:54:19;2.25;;;1.42;;
42036;SDS011;30340;52.004;5.908;2023-01-28T10:56:45;2.95;;;1.98;;
42036;SDS011;30340;52.004;5.908;2023-01-28T11:01:52;3.13;;;1.98;;
42036;SDS011;30340;52.004;5.908;2023-01-28T11:04:26;3.05;;;1.80;;
42036;SDS011;30340;52.004;5.908;2023-01-28T11:07:00;3.20;;;1.80;;
42036;SDS011;30340;52.004;5.908;2023-01-28T11:09:46;2.70;;;1.65;;
42036;SDS011;30340;52.004;5.908;2023-01-28T11:14:53;3.70;;;2.05;;
42036;SDS011;30340;52.004;5.908;2023-01-28T11:17:20;3.20;;;1.60;;
42036;SDS011;30340;52.004;5.908;2023-01-28T11:19:49;2.10;;;1.50;;
42036;SDS011;30340;52.004;5.908;2023-01-28T11:22:23;1.90;;;1.33;;
42036;SDS011;30340;52.004;5.908;2023-01-28T11:25:00;2.22;;;1.40;;
42036;SDS011;30340;52.004;5.908;2023-01-28T11:27:29;2.95;;;1.70;;
42036;SDS011;30340;52.004;5.908;2023-01-28T11:29:59;3.20;;;1.95;;
42036;SDS011;30340;52.004;5.908;2023-01-28T11:32:28;3.33;;;2.05;;
42036;SDS011;30340;52.004;5.908;2023-01-28T11:34:55;4.20;;;1.80;;
42036;SDS011;30340;52.004;5.908;2023-01-28T11:37:22;5.82;;;3.03;;
42036;SDS011;30340;52.004;5.908;2023-01-28T11:42:44;3.40;;;1.90;;
42036;SDS011;30340;52.004;5.908;2023-01-28T11:45:15;4.00;;;1.80;;
42036;SDS011;30340;52.004;5.908;2023-01-28T11:47:48;2.85;;;1.67;;
42036;SDS011;30340;52.004;5.908;2023-01-28T12:09:42;2.55;;;1.50;;
42036;SDS011;30340;52.004;5.908;2023-01-28T12:12:20;2.63;;;1.40;;
42036;SDS011;30340;52.004;5.908;2023-01-28T12:17:41;1.42;;;1.23;;
42036;SDS011;30340;52.004;5.908;2023-01-28T12:28:04;3.00;;;1.88;;
42036;SDS011;30340;52.004;5.908;2023-01-28T12:33:38;3.35;;;1.65;;
42036;SDS011;30340;52.004;5.908;2023-01-28T12:41:27;3.15;;;1.95;;
42036;SDS011;30340;52.004;5.908;2023-01-28T12:49:06;1.90;;;1.23;;
42036;SDS011;30340;52.004;5.908;2023-01-28T12:51:41;2.90;;;1.88;;
42036;SDS011;30340;52.004;5.908;2023-01-28T12:56:56;3.80;;;2.60;;
42036;SDS011;30340;52.004;5.908;2023-01-28T12:59:34;3.75;;;2.15;;
42036;SDS011;30340;52.004;5.908;2023-01-28T13:07:52;3.38;;;2.13;;
42036;SDS011;30340;52.004;5.908;2023-01-28T13:10:26;3.78;;;2.00;;
42036;SDS011;30340;52.004;5.908;2023-01-28T13:13:00;2.33;;;1.50;;
42036;SDS011;30340;52.004;5.908;2023-01-28T13:15:28;2.33;;;1.33;;
42036;SDS011;30340;52.004;5.908;2023-01-28T13:17:55;3.50;;;1.70;;
42036;SDS011;30340;52.004;5.908;2023-01-28T13:20:38;2.15;;;1.45;;
42036;SDS011;30340;52.004;5.908;2023-01-28T13:23:23;4.10;;;2.83;;
42036;SDS011;30340;52.004;5.908;2023-01-28T13:26:10;8.25;;;3.70;;
42036;SDS011;30340;52.004;5.908;2023-01-28T13:28:43;5.18;;;2.92;;
42036;SDS011;30340;52.004;5.908;2023-01-28T13:31:10;6.35;;;3.33;;
42036;SDS011;30340;52.004;5.908;2023-01-28T13:33:41;6.72;;;3.42;;
42036;SDS011;30340;52.004;5.908;2023-01-28T13:38:44;6.28;;;3.47;;
42036;SDS011;30340;52.004;5.908;2023-01-28T13:41:10;5.32;;;2.83;;
42036;SDS011;30340;52.004;5.908;2023-01-28T13:43:36;4.65;;;2.50;;
42036;SDS011;30340;52.004;5.908;2023-01-28T13:48:45;5.15;;;2.75;;
42036;SDS011;30340;52.004;5.908;2023-01-28T13:51:19;4.60;;;2.53;;
42036;SDS011;30340;52.004;5.908;2023-01-28T13:54:03;5.22;;;2.72;;
42036;SDS011;30340;52.004;5.908;2023-01-28T13:56:40;5.45;;;2.80;;
42036;SDS011;30340;52.004;5.908;2023-01-28T14:02:02;3.63;;;1.77;;
42036;SDS011;30340;52.004;5.908;2023-01-28T14:08:25;5.90;;;2.65;;
42036;SDS011;30340;52.004;5.908;2023-01-28T14:14:04;4.30;;;2.35;;
42036;SDS011;30340;52.004;5.908;2023-01-28T14:19:32;4.63;;;2.30;;
42036;SDS011;30340;52.004;5.908;2023-01-28T14:22:07;5.45;;;2.85;;
42036;SDS011;30340;52.004;5.908;2023-01-28T14:24:35;4.63;;;2.60;;
42036;SDS011;30340;52.004;5.908;2023-01-28T14:27:05;4.72;;;2.53;;
42036;SDS011;30340;52.004;5.908;2023-01-28T14:30:00;4.72;;;2.58;;
42036;SDS011;30340;52.004;5.908;2023-01-28T14:32:30;2.88;;;1.52;;
42036;SDS011;30340;52.004;5.908;2023-01-28T14:34:58;1.70;;;1.00;;
42036;SDS011;30340;52.004;5.908;2023-01-28T14:37:31;2.00;;;1.20;;
42036;SDS011;30340;52.004;5.908;2023-01-28T14:39:58;1.88;;;1.30;;
42036;SDS011;30340;52.004;5.908;2023-01-28T14:42:35;3.28;;;2.08;;
42036;SDS011;30340;52.004;5.908;2023-01-28T14:53:24;4.30;;;2.17;;
42036;SDS011;30340;52.004;5.908;2023-01-28T14:56:04;5.68;;;2.78;;
42036;SDS011;30340;52.004;5.908;2023-01-28T14:58:40;3.90;;;2.13;;
42036;SDS011;30340;52.004;5.908;2023-01-28T15:01:26;5.50;;;2.55;;
42036;SDS011;30340;52.004;5.908;2023-01-28T15:03:52;5.80;;;2.95;;
42036;SDS011;30340;52.004;5.908;2023-01-28T15:06:19;3.60;;;1.98;;
42036;SDS011;30340;52.004;5.908;2023-01-28T15:08:50;11.38;;;5.15;;
42036;SDS011;30340;52.004;5.908;2023-01-28T15:11:20;8.90;;;4.53;;
42036;SDS011;30340;52.004;5.908;2023-01-28T15:13:50;8.35;;;3.95;;
42036;SDS011;30340;52.004;5.908;2023-01-28T15:16:20;8.40;;;4.25;;
42036;SDS011;30340;52.004;5.908;2023-01-28T15:18:47;9.55;;;4.18;;
42036;SDS011;30340;52.004;5.908;2023-01-28T15:21:20;4.93;;;2.63;;
42036;SDS011;30340;52.004;5.908;2023-01-28T15:23:49;4.43;;;2.50;;
42036;SDS011;30340;52.004;5.908;2023-01-28T15:28:43;5.00;;;2.80;;
42036;SDS011;30340;52.004;5.908;2023-01-28T15:31:21;3.80;;;2.30;;
42036;SDS011;30340;52.004;5.908;2023-01-28T15:34:14;4.95;;;2.40;;
42036;SDS011;30340;52.004;5.908;2023-01-28T15:36:41;4.40;;;2.58;;
42036;SDS011;30340;52.004;5.908;2023-01-28T15:39:17;7.38;;;2.80;;
42036;SDS011;30340;52.004;5.908;2023-01-28T15:44:26;3.88;;;1.80;;
42036;SDS011;30340;52.004;5.908;2023-01-28T15:46:54;4.05;;;2.35;;
42036;SDS011;30340;52.004;5.908;2023-01-28T15:49:21;3.85;;;1.90;;
42036;SDS011;30340;52.004;5.908;2023-01-28T15:51:50;2.65;;;1.75;;
42036;SDS011;30340;52.004;5.908;2023-01-28T15:54:15;5.60;;;2.67;;
42036;SDS011;30340;52.004;5.908;2023-01-28T15:56:41;4.93;;;2.63;;
42036;SDS011;30340;52.004;5.908;2023-01-28T15:59:08;5.55;;;2.90;;
42036;SDS011;30340;52.004;5.908;2023-01-28T16:01:46;5.30;;;2.58;;
42036;SDS011;30340;52.004;5.908;2023-01-28T16:04:27;7.53;;;3.30;;
42036;SDS011;30340;52.004;5.908;2023-01-28T16:06:54;10.82;;;5.80;;
42036;SDS011;30340;52.004;5.908;2023-01-28T16:09:28;7.35;;;4.10;;
42036;SDS011;30340;52.004;5.908;2023-01-28T16:12:03;8.57;;;3.65;;
42036;SDS011;30340;52.004;5.908;2023-01-28T16:17:19;9.95;;;4.35;;
42036;SDS011;30340;52.004;5.908;2023-01-28T16:19:48;9.05;;;3.88;;
42036;SDS011;30340;52.004;5.908;2023-01-28T16:22:31;8.23;;;3.65;;
42036;SDS011;30340;52.004;5.908;2023-01-28T16:24:59;6.22;;;3.10;;
42036;SDS011;30340;52.004;5.908;2023-01-28T16:27:26;5.80;;;2.58;;
42036;SDS011;30340;52.004;5.908;2023-01-28T16:29:53;10.57;;;2.90;;
42036;SDS011;30340;52.004;5.908;2023-01-28T16:34:50;18.42;;;6.53;;
42036;SDS011;30340;52.004;5.908;2023-01-28T16:37:16;16.80;;;5.50;;
42036;SDS011;30340;52.004;5.908;2023-01-28T16:39:42;8.88;;;3.38;;
42036;SDS011;30340;52.004;5.908;2023-01-28T16:42:07;8.43;;;3.10;;
42036;SDS011;30340;52.004;5.908;2023-01-28T16:44:33;8.40;;;2.55;;
42036;SDS011;30340;52.004;5.908;2023-01-28T16:46:58;5.75;;;2.95;;
42036;SDS011;30340;52.004;5.908;2023-01-28T16:49:24;8.05;;;3.45;;
42036;SDS011;30340;52.004;5.908;2023-01-28T16:51:49;7.00;;;2.75;;
42036;SDS011;30340;52.004;5.908;2023-01-28T16:54:16;4.50;;;2.40;;
42036;SDS011;30340;52.004;5.908;2023-01-28T16:56:42;5.43;;;3.10;;
42036;SDS011;30340;52.004;5.908;2023-01-28T16:59:08;5.60;;;3.20;;
42036;SDS011;30340;52.004;5.908;2023-01-28T17:01:35;5.85;;;3.00;;
42036;SDS011;30340;52.004;5.908;2023-01-28T17:04:00;7.40;;;3.22;;
42036;SDS011;30340;52.004;5.908;2023-01-28T17:06:33;5.43;;;2.55;;
42036;SDS011;30340;52.004;5.908;2023-01-28T17:09:00;3.95;;;2.28;;